sensor_id;sensor_type;location;lat;lon;timestamp;temperature;humidity
34989;DHT22;21192;40.182;44.516;2023-07-02T00:00:59;22.50;62.50
34989;DHT22;21192;40.182;44.516;2023-07-02T00:03:25;22.50;62.50
34989;DHT22;21192;40.182;44.516;2023-07-02T00:05:51;22.50;62.40
34989;DHT22;21192;40.182;44.516;2023-07-02T00:08:21;22.50;62.60
34989;DHT22;21192;40.182;44.516;2023-07-02T00:10:47;22.40;62.80
34989;DHT22;21192;40.182;44.516;2023-07-02T00:13:12;22.40;62.80
34989;DHT22;21192;40.182;44.516;2023-07-02T00:15:38;22.40;62.60
34989;DHT22;21192;40.182;44.516;2023-07-02T00:18:04;22.40;62.70
34989;DHT22;21192;40.182;44.516;2023-07-02T00:20:30;22.30;63.00
34989;DHT22;21192;40.182;44.516;2023-07-02T00:23:00;22.30;63.20
34989;DHT22;21192;40.182;44.516;2023-07-02T00:25:26;22.40;63.00
34989;DHT22;21192;40.182;44.516;2023-07-02T00:27:52;22.30;63.00
34989;DHT22;21192;40.182;44.516;2023-07-02T00:30:18;22.30;63.70
34989;DHT22;21192;40.182;44.516;2023-07-02T00:32:44;22.20;63.10
34989;DHT22;21192;40.182;44.516;2023-07-02T00:35:09;22.20;63.00
34989;DHT22;21192;40.182;44.516;2023-07-02T00:37:35;22.10;63.00
34989;DHT22;21192;40.182;44.516;2023-07-02T00:40:01;22.10;63.00
34989;DHT22;21192;40.182;44.516;2023-07-02T00:42:27;22.10;63.00
34989;DHT22;21192;40.182;44.516;2023-07-02T00:44:55;22.20;62.90
34989;DHT22;21192;40.182;44.516;2023-07-02T00:47:23;22.20;62.70
34989;DHT22;21192;40.182;44.516;2023-07-02T00:49:50;22.20;62.80
34989;DHT22;21192;40.182;44.516;2023-07-02T00:52:16;22.10;62.90
34989;DHT22;21192;40.182;44.516;2023-07-02T00:54:45;22.00;63.10
34989;DHT22;21192;40.182;44.516;2023-07-02T00:57:11;21.90;63.90
34989;DHT22;21192;40.182;44.516;2023-07-02T00:59:37;21.90;63.40
34989;DHT22;21192;40.182;44.516;2023-07-02T01:02:04;21.80;63.80
34989;DHT22;21192;40.182;44.516;2023-07-02T01:04:30;21.80;64.30
34989;DHT22;21192;40.182;44.516;2023-07-02T01:06:56;21.80;64.70
34989;DHT22;21192;40.182;44.516;2023-07-02T01:09:25;21.80;64.90
34989;DHT22;21192;40.182;44.516;2023-07-02T01:11:57;21.70;65.10
34989;DHT22;21192;40.182;44.516;2023-07-02T01:14:32;21.70;64.90
34989;DHT22;21192;40.182;44.516;2023-07-02T01:16:59;21.70;64.70
34989;DHT22;21192;40.182;44.516;2023-07-02T01:19:48;21.70;64.40
34989;DHT22;21192;40.182;44.516;2023-07-02T01:22:25;21.70;64.20
34989;DHT22;21192;40.182;44.516;2023-07-02T01:24:53;21.40;64.50
34989;DHT22;21192;40.182;44.516;2023-07-02T01:27:20;21.40;64.90
34989;DHT22;21192;40.182;44.516;2023-07-02T01:29:46;21.40;64.80
34989;DHT22;21192;40.182;44.516;2023-07-02T01:32:13;21.40;64.80
34989;DHT22;21192;40.182;44.516;2023-07-02T01:34:39;21.50;64.50
34989;DHT22;21192;40.182;44.516;2023-07-02T01:37:05;21.60;64.40
34989;DHT22;21192;40.182;44.516;2023-07-02T01:39:31;21.70;64.30
34989;DHT22;21192;40.182;44.516;2023-07-02T01:42:14;21.70;64.30
34989;DHT22;21192;40.182;44.516;2023-07-02T01:44:45;21.60;64.40
34989;DHT22;21192;40.182;44.516;2023-07-02T01:47:11;21.60;64.60
34989;DHT22;21192;40.182;44.516;2023-07-02T01:49:37;21.60;64.70
34989;DHT22;21192;40.182;44.516;2023-07-02T01:52:04;21.60;64.80
34989;DHT22;21192;40.182;44.516;2023-07-02T01:54:30;21.60;64.80
34989;DHT22;21192;40.182;44.516;2023-07-02T01:56:59;21.60;64.90
34989;DHT22;21192;40.182;44.516;2023-07-02T01:59:26;21.60;64.90
34989;DHT22;21192;40.182;44.516;2023-07-02T02:01:52;21.60;64.90
34989;DHT22;21192;40.182;44.516;2023-07-02T02:04:18;21.70;64.70
34989;DHT22;21192;40.182;44.516;2023-07-02T02:06:44;21.70;64.40
34989;DHT22;21192;40.182;44.516;2023-07-02T02:09:10;21.70;64.50
34989;DHT22;21192;40.182;44.516;2023-07-02T02:11:45;21.80;64.40
34989;DHT22;21192;40.182;44.516;2023-07-02T02:14:11;21.80;64.30
34989;DHT22;21192;40.182;44.516;2023-07-02T02:16:37;21.80;64.20
34989;DHT22;21192;40.182;44.516;2023-07-02T02:19:04;21.90;64.00
34989;DHT22;21192;40.182;44.516;2023-07-02T02:21:30;21.90;63.90
34989;DHT22;21192;40.182;44.516;2023-07-02T02:23:56;22.00;64.00
34989;DHT22;21192;40.182;44.516;2023-07-02T02:26:22;22.00;63.90
34989;DHT22;21192;40.182;44.516;2023-07-02T02:28:49;22.10;63.80
34989;DHT22;21192;40.182;44.516;2023-07-02T02:31:15;22.10;63.60
34989;DHT22;21192;40.182;44.516;2023-07-02T02:33:41;22.20;63.40
34989;DHT22;21192;40.182;44.516;2023-07-02T02:36:07;23.50;62.50
34989;DHT22;21192;40.182;44.516;2023-07-02T02:38:33;25.30;60.80
34989;DHT22;21192;40.182;44.516;2023-07-02T02:41:00;27.10;57.40
34989;DHT22;21192;40.182;44.516;2023-07-02T02:43:28;28.80;54.60
34989;DHT22;21192;40.182;44.516;2023-07-02T02:45:53;30.20;52.00
34989;DHT22;21192;40.182;44.516;2023-07-02T02:48:19;31.50;49.50
34989;DHT22;21192;40.182;44.516;2023-07-02T02:50:46;32.80;47.20
34989;DHT22;21192;40.182;44.516;2023-07-02T02:53:12;33.80;45.10
34989;DHT22;21192;40.182;44.516;2023-07-02T02:55:38;34.90;43.50
34989;DHT22;21192;40.182;44.516;2023-07-02T02:58:04;35.80;42.00
34989;DHT22;21192;40.182;44.516;2023-07-02T03:00:30;36.60;40.80
34989;DHT22;21192;40.182;44.516;2023-07-02T03:02:56;37.40;39.60
34989;DHT22;21192;40.182;44.516;2023-07-02T03:05:22;38.00;38.60
34989;DHT22;21192;40.182;44.516;2023-07-02T03:07:49;38.60;37.60
34989;DHT22;21192;40.182;44.516;2023-07-02T03:10:14;39.30;36.80
34989;DHT22;21192;40.182;44.516;2023-07-02T03:12:40;39.80;35.90
34989;DHT22;21192;40.182;44.516;2023-07-02T03:15:06;40.30;35.30
34989;DHT22;21192;40.182;44.516;2023-07-02T03:17:33;40.80;34.50
34989;DHT22;21192;40.182;44.516;2023-07-02T03:19:59;41.30;33.90
34989;DHT22;21192;40.182;44.516;2023-07-02T03:22:25;41.50;33.40
34989;DHT22;21192;40.182;44.516;2023-07-02T03:24:51;42.00;32.90
34989;DHT22;21192;40.182;44.516;2023-07-02T03:27:16;42.30;32.60
34989;DHT22;21192;40.182;44.516;2023-07-02T03:29:42;42.70;32.00
34989;DHT22;21192;40.182;44.516;2023-07-02T03:32:08;42.90;31.50
34989;DHT22;21192;40.182;44.516;2023-07-02T03:34:34;43.20;31.30
34989;DHT22;21192;40.182;44.516;2023-07-02T03:37:00;43.80;30.80
34989;DHT22;21192;40.182;44.516;2023-07-02T03:39:26;44.30;30.40
34989;DHT22;21192;40.182;44.516;2023-07-02T03:41:51;44.90;30.00
34989;DHT22;21192;40.182;44.516;2023-07-02T03:44:17;45.40;29.60
34989;DHT22;21192;40.182;44.516;2023-07-02T03:46:45;45.90;29.30
34989;DHT22;21192;40.182;44.516;2023-07-02T03:49:11;46.40;28.80
34989;DHT22;21192;40.182;44.516;2023-07-02T03:51:36;46.80;28.30
34989;DHT22;21192;40.182;44.516;2023-07-02T03:54:04;47.30;28.00
34989;DHT22;21192;40.182;44.516;2023-07-02T03:56:30;47.70;27.80
34989;DHT22;21192;40.182;44.516;2023-07-02T03:58:56;48.10;27.50
34989;DHT22;21192;40.182;44.516;2023-07-02T04:01:21;48.30;27.30
34989;DHT22;21192;40.182;44.516;2023-07-02T04:03:49;48.70;26.90
34989;DHT22;21192;40.182;44.516;2023-07-02T04:06:16;49.10;26.70
34989;DHT22;21192;40.182;44.516;2023-07-02T04:08:42;49.50;26.60
34989;DHT22;21192;40.182;44.516;2023-07-02T04:11:08;48.60;27.00
34989;DHT22;21192;40.182;44.516;2023-07-02T04:13:34;48.00;27.40
34989;DHT22;21192;40.182;44.516;2023-07-02T04:16:00;47.70;27.60
34989;DHT22;21192;40.182;44.516;2023-07-02T04:18:26;47.70;27.70
34989;DHT22;21192;40.182;44.516;2023-07-02T04:20:52;48.10;27.70
34989;DHT22;21192;40.182;44.516;2023-07-02T04:23:18;48.20;27.40
34989;DHT22;21192;40.182;44.516;2023-07-02T04:25:44;48.50;27.20
34989;DHT22;21192;40.182;44.516;2023-07-02T04:28:10;48.30;27.10
34989;DHT22;21192;40.182;44.516;2023-07-02T04:30:36;48.20;27.30
34989;DHT22;21192;40.182;44.516;2023-07-02T04:33:01;48.50;27.20
34989;DHT22;21192;40.182;44.516;2023-07-02T04:35:27;48.00;27.20
34989;DHT22;21192;40.182;44.516;2023-07-02T04:37:53;47.80;27.30
34989;DHT22;21192;40.182;44.516;2023-07-02T04:40:19;47.70;27.30
34989;DHT22;21192;40.182;44.516;2023-07-02T04:42:44;47.70;27.20
34989;DHT22;21192;40.182;44.516;2023-07-02T04:45:14;47.90;27.00
34989;DHT22;21192;40.182;44.516;2023-07-02T04:47:45;48.20;26.90
34989;DHT22;21192;40.182;44.516;2023-07-02T04:50:11;48.40;26.70
34989;DHT22;21192;40.182;44.516;2023-07-02T04:52:38;47.70;26.90
34989;DHT22;21192;40.182;44.516;2023-07-02T04:55:05;46.20;27.40
34989;DHT22;21192;40.182;44.516;2023-07-02T04:57:31;44.80;28.20
34989;DHT22;21192;40.182;44.516;2023-07-02T04:59:57;44.00;28.80
34989;DHT22;21192;40.182;44.516;2023-07-02T05:02:23;43.10;29.20
34989;DHT22;21192;40.182;44.516;2023-07-02T05:04:49;41.70;29.80
34989;DHT22;21192;40.182;44.516;2023-07-02T05:07:16;40.40;30.70
34989;DHT22;21192;40.182;44.516;2023-07-02T05:09:42;39.20;31.60
34989;DHT22;21192;40.182;44.516;2023-07-02T05:12:09;38.00;32.70
34989;DHT22;21192;40.182;44.516;2023-07-02T05:14:35;36.50;33.80
34989;DHT22;21192;40.182;44.516;2023-07-02T05:17:00;35.40;35.10
34989;DHT22;21192;40.182;44.516;2023-07-02T05:19:26;34.50;36.10
34989;DHT22;21192;40.182;44.516;2023-07-02T05:21:52;33.60;37.20
34989;DHT22;21192;40.182;44.516;2023-07-02T05:24:18;32.70;38.50
34989;DHT22;21192;40.182;44.516;2023-07-02T05:26:44;32.00;39.60
34989;DHT22;21192;40.182;44.516;2023-07-02T05:29:10;31.40;40.40
34989;DHT22;21192;40.182;44.516;2023-07-02T05:31:36;31.00;41.10
34989;DHT22;21192;40.182;44.516;2023-07-02T05:34:02;30.70;41.80
34989;DHT22;21192;40.182;44.516;2023-07-02T05:36:28;30.50;42.20
34989;DHT22;21192;40.182;44.516;2023-07-02T05:38:53;30.30;42.60
34989;DHT22;21192;40.182;44.516;2023-07-02T05:41:20;30.00;43.20
34989;DHT22;21192;40.182;44.516;2023-07-02T05:43:46;29.70;44.10
34989;DHT22;21192;40.182;44.516;2023-07-02T05:46:12;29.50;44.50
34989;DHT22;21192;40.182;44.516;2023-07-02T05:48:40;29.30;44.90
34989;DHT22;21192;40.182;44.516;2023-07-02T05:51:07;29.20;45.00
34989;DHT22;21192;40.182;44.516;2023-07-02T05:53:32;28.90;45.40
34989;DHT22;21192;40.182;44.516;2023-07-02T05:55:58;28.90;45.70
34989;DHT22;21192;40.182;44.516;2023-07-02T05:58:24;28.80;46.30
34989;DHT22;21192;40.182;44.516;2023-07-02T06:00:50;28.70;46.30
34989;DHT22;21192;40.182;44.516;2023-07-02T06:03:17;28.60;46.60
34989;DHT22;21192;40.182;44.516;2023-07-02T06:05:49;28.60;46.80
34989;DHT22;21192;40.182;44.516;2023-07-02T06:08:18;28.60;47.00
34989;DHT22;21192;40.182;44.516;2023-07-02T06:10:46;28.50;47.30
34989;DHT22;21192;40.182;44.516;2023-07-02T06:13:12;28.70;47.10
34989;DHT22;21192;40.182;44.516;2023-07-02T06:15:38;28.70;47.00
34989;DHT22;21192;40.182;44.516;2023-07-02T06:18:04;28.80;47.00
34989;DHT22;21192;40.182;44.516;2023-07-02T06:20:30;28.70;47.60
34989;DHT22;21192;40.182;44.516;2023-07-02T06:22:56;28.70;46.60
34989;DHT22;21192;40.182;44.516;2023-07-02T06:25:21;28.80;46.20
34989;DHT22;21192;40.182;44.516;2023-07-02T06:27:47;28.90;45.90
34989;DHT22;21192;40.182;44.516;2023-07-02T06:30:13;28.90;46.10
34989;DHT22;21192;40.182;44.516;2023-07-02T06:32:39;29.10;46.30
34989;DHT22;21192;40.182;44.516;2023-07-02T06:35:06;28.90;46.70
34989;DHT22;21192;40.182;44.516;2023-07-02T06:37:32;28.90;46.50
34989;DHT22;21192;40.182;44.516;2023-07-02T06:39:58;28.80;46.20
34989;DHT22;21192;40.182;44.516;2023-07-02T06:42:25;28.70;45.70
34989;DHT22;21192;40.182;44.516;2023-07-02T06:44:51;28.50;45.90
34989;DHT22;21192;40.182;44.516;2023-07-02T06:47:17;28.40;46.20
34989;DHT22;21192;40.182;44.516;2023-07-02T06:49:43;28.40;46.40
34989;DHT22;21192;40.182;44.516;2023-07-02T06:52:08;28.40;46.50
34989;DHT22;21192;40.182;44.516;2023-07-02T06:54:34;28.40;46.70
34989;DHT22;21192;40.182;44.516;2023-07-02T06:57:01;28.40;46.50
34989;DHT22;21192;40.182;44.516;2023-07-02T06:59:27;28.50;46.40
34989;DHT22;21192;40.182;44.516;2023-07-02T07:01:52;28.80;46.40
34989;DHT22;21192;40.182;44.516;2023-07-02T07:04:18;29.00;46.40
34989;DHT22;21192;40.182;44.516;2023-07-02T07:06:46;29.10;46.20
34989;DHT22;21192;40.182;44.516;2023-07-02T07:09:12;29.10;46.10
34989;DHT22;21192;40.182;44.516;2023-07-02T07:11:37;29.00;45.80
34989;DHT22;21192;40.182;44.516;2023-07-02T07:14:03;28.90;46.00
34989;DHT22;21192;40.182;44.516;2023-07-02T07:16:29;28.90;46.00
34989;DHT22;21192;40.182;44.516;2023-07-02T07:18:55;28.80;45.60
34989;DHT22;21192;40.182;44.516;2023-07-02T07:21:20;28.80;45.40
34989;DHT22;21192;40.182;44.516;2023-07-02T07:23:46;28.80;45.40
34989;DHT22;21192;40.182;44.516;2023-07-02T07:26:12;28.60;45.90
34989;DHT22;21192;40.182;44.516;2023-07-02T07:28:40;28.50;46.10
34989;DHT22;21192;40.182;44.516;2023-07-02T07:31:06;28.50;46.20
34989;DHT22;21192;40.182;44.516;2023-07-02T07:33:31;28.60;46.30
34989;DHT22;21192;40.182;44.516;2023-07-02T07:35:57;28.70;46.30
34989;DHT22;21192;40.182;44.516;2023-07-02T07:38:23;28.80;46.30
34989;DHT22;21192;40.182;44.516;2023-07-02T07:40:49;28.90;46.10
34989;DHT22;21192;40.182;44.516;2023-07-02T07:43:15;29.10;46.10
34989;DHT22;21192;40.182;44.516;2023-07-02T07:45:41;29.10;45.90
34989;DHT22;21192;40.182;44.516;2023-07-02T07:48:06;29.00;45.70
34989;DHT22;21192;40.182;44.516;2023-07-02T07:50:32;28.90;45.70
34989;DHT22;21192;40.182;44.516;2023-07-02T07:52:58;28.90;45.90
34989;DHT22;21192;40.182;44.516;2023-07-02T07:55:24;29.00;45.80
34989;DHT22;21192;40.182;44.516;2023-07-02T07:57:50;29.10;45.70
34989;DHT22;21192;40.182;44.516;2023-07-02T08:00:17;29.10;45.70
34989;DHT22;21192;40.182;44.516;2023-07-02T08:02:44;28.90;45.60
34989;DHT22;21192;40.182;44.516;2023-07-02T08:05:10;28.90;45.80
34989;DHT22;21192;40.182;44.516;2023-07-02T08:07:36;28.90;45.60
34989;DHT22;21192;40.182;44.516;2023-07-02T08:10:02;28.90;45.80
34989;DHT22;21192;40.182;44.516;2023-07-02T08:12:28;28.90;46.00
34989;DHT22;21192;40.182;44.516;2023-07-02T08:14:57;28.90;45.90
34989;DHT22;21192;40.182;44.516;2023-07-02T08:17:23;28.90;46.20
34989;DHT22;21192;40.182;44.516;2023-07-02T08:19:49;28.80;46.20
34989;DHT22;21192;40.182;44.516;2023-07-02T08:22:15;28.80;46.20
34989;DHT22;21192;40.182;44.516;2023-07-02T08:24:41;28.70;46.40
34989;DHT22;21192;40.182;44.516;2023-07-02T08:27:06;28.70;47.00
34989;DHT22;21192;40.182;44.516;2023-07-02T08:29:32;28.70;47.00
34989;DHT22;21192;40.182;44.516;2023-07-02T08:31:58;28.70;46.30
34989;DHT22;21192;40.182;44.516;2023-07-02T08:34:24;28.70;46.30
34989;DHT22;21192;40.182;44.516;2023-07-02T08:36:50;28.70;46.50
34989;DHT22;21192;40.182;44.516;2023-07-02T08:39:17;28.70;46.70
34989;DHT22;21192;40.182;44.516;2023-07-02T08:41:47;28.70;46.50
34989;DHT22;21192;40.182;44.516;2023-07-02T08:44:14;28.60;46.60
34989;DHT22;21192;40.182;44.516;2023-07-02T08:46:41;28.50;46.70
34989;DHT22;21192;40.182;44.516;2023-07-02T08:49:08;28.50;46.80
34989;DHT22;21192;40.182;44.516;2023-07-02T08:51:34;28.50;47.10
34989;DHT22;21192;40.182;44.516;2023-07-02T08:54:03;28.50;47.50
34989;DHT22;21192;40.182;44.516;2023-07-02T08:56:30;28.60;47.50
34989;DHT22;21192;40.182;44.516;2023-07-02T08:58:56;28.60;47.40
34989;DHT22;21192;40.182;44.516;2023-07-02T09:01:22;28.60;47.50
34989;DHT22;21192;40.182;44.516;2023-07-02T09:03:49;28.60;47.50
34989;DHT22;21192;40.182;44.516;2023-07-02T09:06:18;28.60;47.60
34989;DHT22;21192;40.182;44.516;2023-07-02T09:08:44;28.50;47.90
34989;DHT22;21192;40.182;44.516;2023-07-02T09:11:12;28.50;47.90
34989;DHT22;21192;40.182;44.516;2023-07-02T09:13:52;28.60;48.00
34989;DHT22;21192;40.182;44.516;2023-07-02T09:16:22;28.70;47.90
34989;DHT22;21192;40.182;44.516;2023-07-02T09:19:07;28.80;48.00
34989;DHT22;21192;40.182;44.516;2023-07-02T09:21:42;28.80;48.20
34989;DHT22;21192;40.182;44.516;2023-07-02T09:24:19;28.80;48.30
34989;DHT22;21192;40.182;44.516;2023-07-02T09:26:47;28.80;48.30
34989;DHT22;21192;40.182;44.516;2023-07-02T09:29:33;28.90;48.30
34989;DHT22;21192;40.182;44.516;2023-07-02T09:32:00;28.90;48.20
34989;DHT22;21192;40.182;44.516;2023-07-02T09:34:30;28.90;48.30
34989;DHT22;21192;40.182;44.516;2023-07-02T09:36:57;28.90;48.30
34989;DHT22;21192;40.182;44.516;2023-07-02T09:39:31;28.90;48.50
34989;DHT22;21192;40.182;44.516;2023-07-02T09:41:59;28.90;48.20
34989;DHT22;21192;40.182;44.516;2023-07-02T09:44:29;28.90;48.20
34989;DHT22;21192;40.182;44.516;2023-07-02T09:49:38;29.10;48.20
34989;DHT22;21192;40.182;44.516;2023-07-02T09:52:09;29.20;47.90
34989;DHT22;21192;40.182;44.516;2023-07-02T09:54:36;29.10;47.60
34989;DHT22;21192;40.182;44.516;2023-07-02T09:57:03;29.20;47.60
34989;DHT22;21192;40.182;44.516;2023-07-02T09:59:29;29.20;47.70
34989;DHT22;21192;40.182;44.516;2023-07-02T10:01:57;29.30;47.80
34989;DHT22;21192;40.182;44.516;2023-07-02T10:04:23;29.30;47.90
34989;DHT22;21192;40.182;44.516;2023-07-02T10:06:54;29.40;47.80
34989;DHT22;21192;40.182;44.516;2023-07-02T10:09:22;29.30;47.90
34989;DHT22;21192;40.182;44.516;2023-07-02T10:11:59;29.30;47.90
34989;DHT22;21192;40.182;44.516;2023-07-02T10:14:25;29.30;47.40
34989;DHT22;21192;40.182;44.516;2023-07-02T10:16:52;29.30;47.50
34989;DHT22;21192;40.182;44.516;2023-07-02T10:19:18;29.20;47.60
34989;DHT22;21192;40.182;44.516;2023-07-02T10:21:44;29.20;47.80
34989;DHT22;21192;40.182;44.516;2023-07-02T10:24:17;29.10;47.80
34989;DHT22;21192;40.182;44.516;2023-07-02T10:26:58;29.20;48.10
34989;DHT22;21192;40.182;44.516;2023-07-02T10:29:26;29.20;47.90
34989;DHT22;21192;40.182;44.516;2023-07-02T10:31:53;29.10;47.60
34989;DHT22;21192;40.182;44.516;2023-07-02T10:34:32;29.10;47.70
34989;DHT22;21192;40.182;44.516;2023-07-02T10:37:02;29.00;47.80
34989;DHT22;21192;40.182;44.516;2023-07-02T10:39:32;29.00;47.70
34989;DHT22;21192;40.182;44.516;2023-07-02T10:42:05;29.00;47.40
34989;DHT22;21192;40.182;44.516;2023-07-02T10:44:31;29.00;47.40
34989;DHT22;21192;40.182;44.516;2023-07-02T10:46:58;29.10;47.40
34989;DHT22;21192;40.182;44.516;2023-07-02T10:49:30;29.20;47.30
34989;DHT22;21192;40.182;44.516;2023-07-02T10:52:00;29.20;47.40
34989;DHT22;21192;40.182;44.516;2023-07-02T10:54:27;29.40;47.50
34989;DHT22;21192;40.182;44.516;2023-07-02T10:57:04;29.50;47.30
34989;DHT22;21192;40.182;44.516;2023-07-02T10:59:30;29.70;47.20
34989;DHT22;21192;40.182;44.516;2023-07-02T11:01:56;29.80;47.30
34989;DHT22;21192;40.182;44.516;2023-07-02T11:04:27;29.80;47.20
34989;DHT22;21192;40.182;44.516;2023-07-02T11:06:53;29.90;47.20
34989;DHT22;21192;40.182;44.516;2023-07-02T11:09:19;29.90;47.20
34989;DHT22;21192;40.182;44.516;2023-07-02T11:11:55;29.90;47.20
34989;DHT22;21192;40.182;44.516;2023-07-02T11:14:35;30.00;47.20
34989;DHT22;21192;40.182;44.516;2023-07-02T11:17:06;30.00;46.90
34989;DHT22;21192;40.182;44.516;2023-07-02T11:19:35;30.20;46.80
34989;DHT22;21192;40.182;44.516;2023-07-02T11:22:01;30.20;46.90
34989;DHT22;21192;40.182;44.516;2023-07-02T11:24:36;30.30;46.90
34989;DHT22;21192;40.182;44.516;2023-07-02T11:27:05;30.40;46.70
34989;DHT22;21192;40.182;44.516;2023-07-02T11:29:32;30.50;46.50
34989;DHT22;21192;40.182;44.516;2023-07-02T11:32:11;30.50;46.40
34989;DHT22;21192;40.182;44.516;2023-07-02T11:34:38;30.50;46.40
34989;DHT22;21192;40.182;44.516;2023-07-02T11:37:04;30.60;46.20
34989;DHT22;21192;40.182;44.516;2023-07-02T11:39:31;30.50;46.00
34989;DHT22;21192;40.182;44.516;2023-07-02T11:41:57;30.60;45.70
34989;DHT22;21192;40.182;44.516;2023-07-02T11:44:23;30.60;45.80
34989;DHT22;21192;40.182;44.516;2023-07-02T11:46:49;30.60;45.70
34989;DHT22;21192;40.182;44.516;2023-07-02T11:49:15;30.60;45.70
34989;DHT22;21192;40.182;44.516;2023-07-02T11:51:42;30.60;45.80
34989;DHT22;21192;40.182;44.516;2023-07-02T11:54:14;30.60;45.80
34989;DHT22;21192;40.182;44.516;2023-07-02T11:56:40;30.60;45.80
34989;DHT22;21192;40.182;44.516;2023-07-02T11:59:08;30.70;45.90
34989;DHT22;21192;40.182;44.516;2023-07-02T12:01:34;30.80;45.60
34989;DHT22;21192;40.182;44.516;2023-07-02T12:04:00;30.90;45.30
34989;DHT22;21192;40.182;44.516;2023-07-02T12:06:26;30.90;45.10
34989;DHT22;21192;40.182;44.516;2023-07-02T12:08:51;31.00;44.90
34989;DHT22;21192;40.182;44.516;2023-07-02T12:11:17;31.00;44.20
34989;DHT22;21192;40.182;44.516;2023-07-02T12:13:43;31.00;43.90
34989;DHT22;21192;40.182;44.516;2023-07-02T12:16:09;31.00;43.70
34989;DHT22;21192;40.182;44.516;2023-07-02T12:18:35;31.00;43.40
34989;DHT22;21192;40.182;44.516;2023-07-02T12:21:01;31.00;43.40
34989;DHT22;21192;40.182;44.516;2023-07-02T12:23:26;31.00;43.70
34989;DHT22;21192;40.182;44.516;2023-07-02T12:25:52;31.00;43.70
34989;DHT22;21192;40.182;44.516;2023-07-02T12:28:18;30.90;43.50
34989;DHT22;21192;40.182;44.516;2023-07-02T12:30:44;30.90;43.80
34989;DHT22;21192;40.182;44.516;2023-07-02T12:33:10;30.90;43.80
34989;DHT22;21192;40.182;44.516;2023-07-02T12:35:36;30.90;43.90
34989;DHT22;21192;40.182;44.516;2023-07-02T12:38:02;30.90;43.90
34989;DHT22;21192;40.182;44.516;2023-07-02T12:40:29;30.90;43.50
34989;DHT22;21192;40.182;44.516;2023-07-02T12:42:55;30.90;42.70
34989;DHT22;21192;40.182;44.516;2023-07-02T12:45:22;30.90;42.50
34989;DHT22;21192;40.182;44.516;2023-07-02T12:47:48;31.00;42.30
34989;DHT22;21192;40.182;44.516;2023-07-02T12:50:14;31.00;41.80
34989;DHT22;21192;40.182;44.516;2023-07-02T12:52:40;30.90;41.50
34989;DHT22;21192;40.182;44.516;2023-07-02T12:55:06;31.00;41.40
34989;DHT22;21192;40.182;44.516;2023-07-02T12:57:32;31.00;41.50
34989;DHT22;21192;40.182;44.516;2023-07-02T12:59:57;31.00;41.80
34989;DHT22;21192;40.182;44.516;2023-07-02T13:02:24;31.00;41.50
34989;DHT22;21192;40.182;44.516;2023-07-02T13:04:50;30.90;41.50
34989;DHT22;21192;40.182;44.516;2023-07-02T13:07:16;30.90;41.60
34989;DHT22;21192;40.182;44.516;2023-07-02T13:09:42;30.90;41.50
34989;DHT22;21192;40.182;44.516;2023-07-02T13:12:10;31.00;41.20
34989;DHT22;21192;40.182;44.516;2023-07-02T13:14:37;31.00;40.60
34989;DHT22;21192;40.182;44.516;2023-07-02T13:17:03;31.10;39.90
34989;DHT22;21192;40.182;44.516;2023-07-02T13:19:31;31.00;39.30
34989;DHT22;21192;40.182;44.516;2023-07-02T13:21:56;31.10;39.40
34989;DHT22;21192;40.182;44.516;2023-07-02T13:24:22;31.10;39.40
34989;DHT22;21192;40.182;44.516;2023-07-02T13:26:48;31.10;39.00
34989;DHT22;21192;40.182;44.516;2023-07-02T13:29:14;31.10;38.60
34989;DHT22;21192;40.182;44.516;2023-07-02T13:31:41;31.10;38.60
34989;DHT22;21192;40.182;44.516;2023-07-02T13:34:07;31.10;38.50
34989;DHT22;21192;40.182;44.516;2023-07-02T13:36:33;31.10;38.50
34989;DHT22;21192;40.182;44.516;2023-07-02T13:38:59;31.10;38.50
34989;DHT22;21192;40.182;44.516;2023-07-02T13:41:25;31.10;38.30
34989;DHT22;21192;40.182;44.516;2023-07-02T13:43:51;31.10;38.10
34989;DHT22;21192;40.182;44.516;2023-07-02T13:46:16;31.10;37.90
34989;DHT22;21192;40.182;44.516;2023-07-02T13:48:42;31.10;37.80
34989;DHT22;21192;40.182;44.516;2023-07-02T13:51:08;31.10;37.60
34989;DHT22;21192;40.182;44.516;2023-07-02T13:53:34;31.10;37.80
34989;DHT22;21192;40.182;44.516;2023-07-02T13:56:01;31.10;37.60
34989;DHT22;21192;40.182;44.516;2023-07-02T14:01:10;31.10;38.40
34989;DHT22;21192;40.182;44.516;2023-07-02T14:03:36;31.00;38.50
34989;DHT22;21192;40.182;44.516;2023-07-02T14:06:02;31.00;38.80
34989;DHT22;21192;40.182;44.516;2023-07-02T14:08:28;31.00;39.30
34989;DHT22;21192;40.182;44.516;2023-07-02T14:10:53;31.00;39.50
34989;DHT22;21192;40.182;44.516;2023-07-02T14:13:19;31.00;39.70
34989;DHT22;21192;40.182;44.516;2023-07-02T14:15:45;30.90;39.70
34989;DHT22;21192;40.182;44.516;2023-07-02T14:18:11;30.90;39.70
34989;DHT22;21192;40.182;44.516;2023-07-02T14:20:36;30.90;39.90
34989;DHT22;21192;40.182;44.516;2023-07-02T14:23:02;30.80;39.90
34989;DHT22;21192;40.182;44.516;2023-07-02T14:25:28;30.90;40.20
34989;DHT22;21192;40.182;44.516;2023-07-02T14:27:54;30.80;40.20
34989;DHT22;21192;40.182;44.516;2023-07-02T14:30:20;30.90;40.40
34989;DHT22;21192;40.182;44.516;2023-07-02T14:32:46;30.90;40.60
34989;DHT22;21192;40.182;44.516;2023-07-02T14:35:11;30.80;40.80
34989;DHT22;21192;40.182;44.516;2023-07-02T14:37:37;30.70;40.80
34989;DHT22;21192;40.182;44.516;2023-07-02T14:40:03;30.80;40.80
34989;DHT22;21192;40.182;44.516;2023-07-02T14:42:29;30.70;40.80
34989;DHT22;21192;40.182;44.516;2023-07-02T14:44:55;30.70;40.90
34989;DHT22;21192;40.182;44.516;2023-07-02T14:47:21;30.60;41.00
34989;DHT22;21192;40.182;44.516;2023-07-02T14:49:46;30.60;41.40
34989;DHT22;21192;40.182;44.516;2023-07-02T14:52:12;30.60;41.30
34989;DHT22;21192;40.182;44.516;2023-07-02T14:54:39;30.50;41.30
34989;DHT22;21192;40.182;44.516;2023-07-02T14:57:05;30.50;41.20
34989;DHT22;21192;40.182;44.516;2023-07-02T14:59:31;30.50;42.00
34989;DHT22;21192;40.182;44.516;2023-07-02T15:01:56;30.50;41.40
34989;DHT22;21192;40.182;44.516;2023-07-02T15:04:22;30.50;41.40
34989;DHT22;21192;40.182;44.516;2023-07-02T15:06:48;30.50;41.50
34989;DHT22;21192;40.182;44.516;2023-07-02T15:09:14;30.40;41.50
34989;DHT22;21192;40.182;44.516;2023-07-02T15:11:40;30.40;41.60
34989;DHT22;21192;40.182;44.516;2023-07-02T15:14:05;30.30;41.50
34989;DHT22;21192;40.182;44.516;2023-07-02T15:16:31;30.30;41.60
34989;DHT22;21192;40.182;44.516;2023-07-02T15:18:57;30.30;41.60